createdAt,value
2018-06-10T00:00:59.488Z,7.63
2018-06-10T00:03:28.044Z,6.60
2018-06-10T00:05:56.379Z,9.13
2018-06-10T00:08:24.777Z,14.40
2018-06-10T00:10:53.186Z,14.30
2018-06-10T00:13:21.570Z,17.47
2018-06-10T00:15:50.596Z,11.50
2018-06-10T00:18:18.937Z,16.23
2018-06-10T00:20:47.320Z,12.70
2018-06-10T00:23:15.635Z,10.37
2018-06-10T00:25:44.038Z,11.43
2018-06-10T00:28:12.475Z,12.37
2018-06-10T00:30:40.813Z,14.43
2018-06-10T00:33:09.145Z,10.30
2018-06-10T00:35:37.458Z,14.43
2018-06-10T00:38:05.904Z,12.43
2018-06-10T00:40:34.291Z,9.70
2018-06-10T00:43:04.201Z,10.23
2018-06-10T00:45:32.627Z,9.90
2018-06-10T00:48:02.320Z,10.23
2018-06-10T00:50:31.528Z,14.07
2018-06-10T00:52:59.883Z,11.33
2018-06-10T00:55:28.225Z,11.10
2018-06-10T00:57:57.164Z,9.90
2018-06-10T01:00:25.499Z,17.07
2018-06-10T01:02:53.821Z,9.77
2018-06-10T01:05:22.159Z,13.80
2018-06-10T01:07:50.488Z,14.30
2018-06-10T01:10:18.852Z,14.20
2018-06-10T01:12:47.187Z,12.60
2018-06-10T01:15:15.525Z,11.20
2018-06-10T01:17:43.893Z,10.90
2018-06-10T01:20:12.185Z,9.53
2018-06-10T01:22:41.096Z,11.30
2018-06-10T01:25:09.463Z,9.43
2018-06-10T01:27:37.801Z,11.13
2018-06-10T01:30:06.140Z,12.83
2018-06-10T01:32:34.449Z,15.53
2018-06-10T01:35:02.836Z,13.93
2018-06-10T01:37:31.200Z,12.37
2018-06-10T01:39:59.903Z,13.97
2018-06-10T01:42:28.244Z,14.27
2018-06-10T01:44:56.624Z,14.97
2018-06-10T01:47:24.981Z,13.70
2018-06-10T01:49:53.298Z,16.90
2018-06-10T01:52:21.645Z,15.27
2018-06-10T01:54:49.971Z,17.50
2018-06-10T01:57:18.376Z,13.27
2018-06-10T01:59:46.720Z,17.20
2018-06-10T02:02:15.071Z,14.30
2018-06-10T02:04:44.472Z,15.43
2018-06-10T02:07:12.836Z,15.43
2018-06-10T02:09:41.930Z,13.87
2018-06-10T02:12:10.279Z,14.20
2018-06-10T02:14:38.691Z,15.30
2018-06-10T02:17:07.088Z,13.03
2018-06-10T02:19:36.035Z,15.00
2018-06-10T02:22:04.385Z,12.47
2018-06-10T02:24:33.405Z,15.87
2018-06-10T02:27:01.757Z,16.87
2018-06-10T02:29:30.124Z,15.63
2018-06-10T02:31:58.462Z,14.57
2018-06-10T02:34:26.813Z,13.67
2018-06-10T02:36:55.132Z,17.70
2018-06-10T02:39:24.146Z,13.40
2018-06-10T02:41:52.521Z,15.13
2018-06-10T02:44:20.879Z,14.20
2018-06-10T02:46:49.221Z,14.30
2018-06-10T02:49:17.585Z,21.63
2018-06-10T02:51:46.269Z,13.40
2018-06-10T02:54:14.611Z,17.10
2018-06-10T02:56:42.981Z,15.37
2018-06-10T02:59:11.409Z,16.57
2018-06-10T03:01:39.801Z,13.97
2018-06-10T03:04:08.185Z,11.90
2018-06-10T03:06:36.538Z,12.10
2018-06-10T03:09:07.296Z,12.40
2018-06-10T03:11:35.651Z,11.67
2018-06-10T03:14:03.982Z,13.67
2018-06-10T03:16:32.330Z,12.30
2018-06-10T03:19:00.406Z,13.60
2018-06-10T03:21:28.692Z,15.20
2018-06-10T03:23:57.015Z,14.17
2018-06-10T03:26:25.996Z,13.67
2018-06-10T03:28:54.309Z,18.80
2018-06-10T03:31:22.695Z,13.10
2018-06-10T03:33:51.047Z,14.33
2018-06-10T03:36:19.439Z,10.43
2018-06-10T03:38:48.178Z,13.13
2018-06-10T03:41:16.637Z,16.17
2018-06-10T03:43:45.034Z,13.93
2018-06-10T03:46:13.362Z,13.47
2018-06-10T03:48:41.722Z,15.47
2018-06-10T03:51:10.962Z,20.43
2018-06-10T03:53:39.288Z,14.50
2018-06-10T03:56:08.628Z,15.90
2018-06-10T03:58:36.972Z,18.23
2018-06-10T04:01:05.301Z,16.53
2018-06-10T04:03:33.646Z,19.50
2018-06-10T04:06:01.946Z,22.73
2018-06-10T04:08:30.263Z,28.23
2018-06-10T04:10:58.561Z,22.30
2018-06-10T04:13:26.906Z,24.77
2018-06-10T04:15:55.221Z,20.00
2018-06-10T04:18:23.550Z,25.80
2018-06-10T04:20:51.889Z,18.63
2018-06-10T04:23:20.195Z,21.00
2018-06-10T04:25:48.533Z,23.53
2018-06-10T04:28:16.842Z,23.47
2018-06-10T04:30:45.165Z,24.83
2018-06-10T04:33:13.478Z,17.67
2018-06-10T04:35:41.790Z,20.80
2018-06-10T04:38:10.141Z,25.60
2018-06-10T04:40:38.486Z,22.03
2018-06-10T04:43:06.910Z,22.97
2018-06-10T04:45:35.274Z,21.37
2018-06-10T04:48:03.600Z,29.67
2018-06-10T04:50:31.925Z,22.73
2018-06-10T04:53:00.307Z,27.10
2018-06-10T04:55:28.569Z,21.53
2018-06-10T04:57:56.955Z,21.40
2018-06-10T05:00:25.262Z,22.07
2018-06-10T05:02:53.324Z,21.70
2018-06-10T05:05:21.704Z,29.30
2018-06-10T05:07:50.033Z,25.37
2018-06-10T05:10:18.397Z,24.87
2018-06-10T05:12:46.738Z,22.53
2018-06-10T05:15:15.085Z,25.30
2018-06-10T05:17:43.418Z,27.10
2018-06-10T05:20:11.782Z,25.13
2018-06-10T05:22:40.152Z,23.57
2018-06-10T05:25:08.247Z,23.50
2018-06-10T05:27:36.608Z,28.37
2018-06-10T05:30:04.985Z,26.97
2018-06-10T05:32:33.610Z,24.90
2018-06-10T05:35:01.966Z,27.83
2018-06-10T05:37:30.303Z,25.83
2018-06-10T05:39:58.638Z,30.93
2018-06-10T05:42:26.942Z,27.63
2018-06-10T05:44:55.258Z,19.13
2018-06-10T05:47:23.373Z,17.70
2018-06-10T05:49:51.710Z,33.70
2018-06-10T05:52:20.034Z,18.27
2018-06-10T05:54:48.371Z,16.97
2018-06-10T05:57:16.411Z,18.30
2018-06-10T05:59:44.766Z,17.20
2018-06-10T06:02:13.327Z,17.97
2018-06-10T06:04:41.704Z,19.47
2018-06-10T06:07:10.085Z,13.57
2018-06-10T06:09:38.470Z,18.27
2018-06-10T06:12:06.805Z,16.90
2018-06-10T06:14:35.864Z,16.93
2018-06-10T06:17:04.522Z,18.77
2018-06-10T06:19:32.835Z,16.07
2018-06-10T06:22:01.138Z,19.20
2018-06-10T06:24:29.514Z,21.37
2018-06-10T06:26:59.209Z,16.27
2018-06-10T06:29:27.507Z,17.97
2018-06-10T06:31:55.903Z,21.67
2018-06-10T06:34:24.256Z,20.73
2018-06-10T06:36:52.604Z,18.10
2018-06-10T06:39:20.975Z,20.57
2018-06-10T06:41:49.289Z,19.10
2018-06-10T06:44:17.657Z,19.60
2018-06-10T06:46:45.998Z,24.87
2018-06-10T06:49:14.972Z,18.87
2018-06-10T06:51:43.459Z,18.93
2018-06-10T06:54:11.848Z,21.80
2018-06-10T06:56:40.231Z,18.00
2018-06-10T06:59:08.611Z,23.20
2018-06-10T07:01:36.988Z,21.37
2018-06-10T07:04:05.378Z,23.57
2018-06-10T07:06:33.703Z,23.70
2018-06-10T07:09:02.169Z,24.63
2018-06-10T07:11:30.464Z,19.03
2018-06-10T07:13:58.854Z,18.93
2018-06-10T07:16:27.240Z,20.67
2018-06-10T07:18:55.576Z,20.30
2018-06-10T07:21:24.147Z,17.70
2018-06-10T07:23:52.457Z,18.70
2018-06-10T07:26:20.783Z,23.63
2018-06-10T07:28:49.115Z,21.73
2018-06-10T07:31:17.466Z,20.50
2018-06-10T07:33:45.871Z,20.47
2018-06-10T07:36:14.232Z,19.80
2018-06-10T07:38:42.618Z,22.23
2018-06-10T07:41:10.950Z,21.87
2018-06-10T07:43:39.294Z,19.47
2018-06-10T07:46:07.667Z,21.93
2018-06-10T07:48:36.037Z,18.57
2018-06-10T07:51:04.390Z,17.13
2018-06-10T07:53:32.720Z,17.40
2018-06-10T07:56:01.040Z,18.13
2018-06-10T07:58:29.381Z,19.70
2018-06-10T08:00:57.822Z,19.07
2018-06-10T08:03:26.199Z,17.33
2018-06-10T08:05:54.524Z,20.90
2018-06-10T08:08:22.911Z,20.20
2018-06-10T08:10:51.306Z,18.60
2018-06-10T08:13:19.667Z,19.40
2018-06-10T08:15:48.110Z,16.10
2018-06-10T08:18:16.461Z,18.47
2018-06-10T08:20:44.771Z,19.90
2018-06-10T08:23:13.170Z,16.70
2018-06-10T08:25:42.198Z,20.07
2018-06-10T08:28:10.611Z,16.03
2018-06-10T08:30:38.994Z,16.17
2018-06-10T08:33:07.311Z,17.03
2018-06-10T08:35:35.680Z,18.67
2018-06-10T08:38:04.058Z,15.37
2018-06-10T08:40:32.411Z,16.77
2018-06-10T08:43:00.726Z,15.67
2018-06-10T08:45:29.110Z,14.80
2018-06-10T08:47:57.574Z,12.80
2018-06-10T08:50:26.055Z,14.50
2018-06-10T08:52:54.554Z,16.50
2018-06-10T08:55:22.924Z,13.77
2018-06-10T08:57:51.250Z,14.20
2018-06-10T09:00:19.678Z,16.73
2018-06-10T09:02:48.148Z,13.93
2018-06-10T09:05:16.550Z,14.63
2018-06-10T09:07:44.916Z,14.93
2018-06-10T09:10:13.287Z,14.33
2018-06-10T09:12:41.628Z,15.63
2018-06-10T09:15:09.989Z,14.50
2018-06-10T09:17:38.337Z,15.60
2018-06-10T09:20:06.780Z,16.53
2018-06-10T09:22:35.141Z,14.60
2018-06-10T09:25:03.543Z,13.90
2018-06-10T09:27:31.894Z,13.53
2018-06-10T09:30:00.283Z,15.77
2018-06-10T09:32:28.701Z,13.93
2018-06-10T09:34:57.053Z,15.60
2018-06-10T09:37:25.490Z,15.60
2018-06-10T09:39:53.944Z,14.30
2018-06-10T09:42:23.115Z,15.83
2018-06-10T09:44:51.529Z,15.83
2018-06-10T09:47:19.922Z,15.67
2018-06-10T09:49:48.366Z,16.43
2018-06-10T09:52:16.768Z,16.27
2018-06-10T09:54:45.154Z,13.60
2018-06-10T09:57:13.534Z,13.67
2018-06-10T09:59:41.879Z,12.43
2018-06-10T10:02:10.342Z,11.53
2018-06-10T10:04:38.702Z,13.33
2018-06-10T10:07:07.111Z,8.33
2018-06-10T10:09:35.584Z,9.97
2018-06-10T10:12:04.005Z,10.30
2018-06-10T10:14:32.449Z,11.90
2018-06-10T10:17:01.434Z,15.43
2018-06-10T10:19:29.852Z,14.53
2018-06-10T10:21:58.183Z,13.40
2018-06-10T10:24:26.259Z,13.03
2018-06-10T10:26:54.338Z,11.60
2018-06-10T10:29:22.715Z,12.00
2018-06-10T10:31:51.148Z,11.87
2018-06-10T10:34:19.523Z,13.67
2018-06-10T10:36:47.899Z,12.60
2018-06-10T10:39:16.244Z,13.60
2018-06-10T10:41:44.579Z,12.43
2018-06-10T10:44:12.955Z,11.77
2018-06-10T10:46:41.300Z,11.20
2018-06-10T10:49:16.390Z,10.23
2018-06-10T10:51:44.729Z,9.77
2018-06-10T10:54:13.304Z,9.53
2018-06-10T10:56:41.700Z,9.70
2018-06-10T10:59:10.057Z,9.03
2018-06-10T11:01:39.042Z,8.13
2018-06-10T11:04:07.354Z,6.30
2018-06-10T11:06:36.165Z,7.23
2018-06-10T11:09:05.781Z,11.80
2018-06-10T11:11:34.116Z,10.17
2018-06-10T11:14:02.538Z,9.73
2018-06-10T11:16:30.888Z,10.80
2018-06-10T11:18:59.220Z,11.00
2018-06-10T11:21:27.606Z,10.93
2018-06-10T11:23:55.960Z,10.70
2018-06-10T11:26:24.337Z,16.23
2018-06-10T11:28:52.723Z,10.63
2018-06-10T11:31:21.096Z,11.67
2018-06-10T11:33:49.479Z,10.50
2018-06-10T11:36:17.869Z,10.07
2018-06-10T11:38:46.213Z,10.17
2018-06-10T11:41:15.586Z,9.73
2018-06-10T11:43:43.994Z,10.43
2018-06-10T11:46:12.083Z,10.00
2018-06-10T11:48:40.773Z,9.93
2018-06-10T11:51:09.385Z,9.40
2018-06-10T11:53:37.769Z,11.50
2018-06-10T11:56:06.152Z,9.53
2018-06-10T11:58:34.503Z,8.50
2018-06-10T12:01:02.831Z,8.03
2018-06-10T12:03:31.208Z,9.17
2018-06-10T12:05:59.545Z,8.57
2018-06-10T12:08:27.911Z,8.83
2018-06-10T12:10:56.278Z,8.43
2018-06-10T12:13:24.594Z,9.03
2018-06-10T12:15:52.947Z,8.43
2018-06-10T12:18:21.298Z,9.50
2018-06-10T12:20:49.675Z,7.50
2018-06-10T12:23:18.076Z,8.23
2018-06-10T12:25:46.380Z,7.80
2018-06-10T12:28:14.775Z,7.63
2018-06-10T12:30:43.118Z,8.40
2018-06-10T12:33:11.511Z,7.50
2018-06-10T12:35:39.877Z,7.07
2018-06-10T12:38:08.231Z,8.20
2018-06-10T12:40:36.620Z,7.20
2018-06-10T12:43:04.966Z,7.50
2018-06-10T12:48:23.287Z,7.07
2018-06-10T12:50:51.632Z,5.33
2018-06-10T12:53:19.980Z,5.10
2018-06-10T12:55:48.390Z,5.80
2018-06-10T12:58:16.723Z,6.03
2018-06-10T13:00:45.878Z,6.27
2018-06-10T13:03:14.219Z,5.90
2018-06-10T13:05:42.608Z,5.63
2018-06-10T13:08:10.941Z,5.60
2018-06-10T13:10:39.251Z,5.90
2018-06-10T13:13:07.611Z,4.73
2018-06-10T13:15:35.988Z,4.97
2018-06-10T13:18:04.825Z,4.60
2018-06-10T13:20:33.210Z,4.23
2018-06-10T13:23:01.525Z,5.60
2018-06-10T13:25:29.831Z,5.50
2018-06-10T13:27:58.213Z,5.70
2018-06-10T13:30:26.292Z,5.40
2018-06-10T13:32:54.643Z,5.30
2018-06-10T13:35:23.027Z,4.80
2018-06-10T13:37:51.371Z,5.73
2018-06-10T13:40:19.719Z,5.90
2018-06-10T13:42:48.118Z,5.60
2018-06-10T13:45:16.453Z,5.43
2018-06-10T13:47:44.848Z,5.93
2018-06-10T13:50:13.250Z,5.57
2018-06-10T13:52:41.589Z,6.07
2018-06-10T13:55:09.915Z,5.30
2018-06-10T13:57:38.253Z,5.70
2018-06-10T14:00:06.617Z,7.00
2018-06-10T14:02:34.975Z,6.20
2018-06-10T14:05:03.377Z,5.73
2018-06-10T14:07:31.504Z,5.77
2018-06-10T14:09:59.858Z,5.17
2018-06-10T14:12:28.318Z,5.40
2018-06-10T14:14:56.608Z,6.23
2018-06-10T14:17:24.928Z,5.20
2018-06-10T14:19:53.662Z,5.83
2018-06-10T14:22:22.092Z,5.33
2018-06-10T14:24:50.409Z,5.13
2018-06-10T14:27:18.776Z,5.93
2018-06-10T14:29:48.236Z,5.97
2018-06-10T14:32:16.659Z,5.47
2018-06-10T14:34:45.051Z,5.90
2018-06-10T14:37:13.997Z,6.13
2018-06-10T14:39:42.371Z,6.00
2018-06-10T14:42:11.206Z,5.87
2018-06-10T14:44:39.550Z,5.57
2018-06-10T14:47:07.949Z,6.13
2018-06-10T14:49:36.396Z,6.13
2018-06-10T14:52:04.750Z,6.10
2018-06-10T14:54:33.149Z,6.60
2018-06-10T14:57:01.912Z,5.47
2018-06-10T14:59:30.347Z,4.67
2018-06-10T15:01:58.720Z,4.93
2018-06-10T15:04:27.129Z,6.10
2018-06-10T15:06:55.519Z,5.03
2018-06-10T15:09:23.963Z,5.33
2018-06-10T15:11:52.342Z,5.10
2018-06-10T15:14:20.707Z,5.57
2018-06-10T15:16:49.080Z,5.20
2018-06-10T15:19:17.431Z,4.83
2018-06-10T15:21:45.983Z,6.87
2018-06-10T15:24:14.360Z,7.20
2018-06-10T15:26:42.868Z,7.50
2018-06-10T15:29:11.251Z,8.90
2018-06-10T15:31:39.656Z,7.57
2018-06-10T15:34:08.048Z,7.83
2018-06-10T15:36:36.384Z,8.77
2018-06-10T15:39:07.181Z,8.57
2018-06-10T15:41:35.544Z,8.40
2018-06-10T15:44:03.893Z,7.50
2018-06-10T15:46:32.290Z,8.20
2018-06-10T15:49:00.633Z,7.77
2018-06-10T15:51:28.971Z,8.27
2018-06-10T15:53:57.299Z,8.73
2018-06-10T15:56:25.637Z,7.60
2018-06-10T15:58:54.007Z,11.00
2018-06-10T16:01:22.077Z,7.43
2018-06-10T16:03:50.424Z,7.57
2018-06-10T16:06:18.801Z,10.30
2018-06-10T16:08:47.146Z,8.10
2018-06-10T16:11:15.600Z,7.53
2018-06-10T16:13:43.986Z,8.90
2018-06-10T16:16:12.334Z,8.37
2018-06-10T16:18:40.678Z,8.60
2018-06-10T16:21:09.054Z,8.47
2018-06-10T16:23:37.438Z,9.07
2018-06-10T16:26:05.894Z,7.63
2018-06-10T16:28:34.447Z,8.70
2018-06-10T16:31:02.802Z,10.03
2018-06-10T16:33:31.213Z,10.40
2018-06-10T16:35:59.679Z,10.73
2018-06-10T16:38:28.063Z,9.10
2018-06-10T16:40:56.435Z,14.00
2018-06-10T16:43:24.780Z,19.13
2018-06-10T16:45:53.176Z,22.30
2018-06-10T16:48:21.648Z,22.10
2018-06-10T16:50:50.032Z,22.50
2018-06-10T16:53:18.376Z,24.53
2018-06-10T16:55:46.772Z,27.83
2018-06-10T16:58:15.172Z,42.00
2018-06-10T17:00:53.728Z,46.70
2018-06-10T17:03:22.277Z,43.17
2018-06-10T17:05:50.806Z,43.30
2018-06-10T17:08:19.196Z,41.03
2018-06-10T17:10:48.008Z,46.13
2018-06-10T17:13:16.400Z,44.40
2018-06-10T17:15:44.800Z,42.37
2018-06-10T17:18:13.880Z,35.50
2018-06-10T17:20:42.260Z,38.50
2018-06-10T17:23:10.700Z,31.70
2018-06-10T17:25:39.077Z,41.80
2018-06-10T17:28:07.452Z,26.30
2018-06-10T17:30:35.824Z,26.47
2018-06-10T17:33:04.240Z,25.70
2018-06-10T17:35:32.677Z,26.63
2018-06-10T17:38:01.149Z,23.77
2018-06-10T17:40:29.481Z,29.10
2018-06-10T17:42:58.466Z,30.10
2018-06-10T17:45:26.989Z,24.50
2018-06-10T17:47:55.378Z,24.00
2018-06-10T17:50:23.768Z,25.30
2018-06-10T17:52:51.812Z,25.00
2018-06-10T17:55:20.198Z,26.53
2018-06-10T17:57:48.569Z,25.07
2018-06-10T18:00:16.945Z,26.03
2018-06-10T18:02:45.315Z,25.13
2018-06-10T18:05:13.677Z,23.20
2018-06-10T18:07:42.046Z,20.50
2018-06-10T18:10:10.654Z,18.10
2018-06-10T18:12:39.097Z,18.43
2018-06-10T18:15:07.554Z,16.97
2018-06-10T18:17:36.509Z,18.70
2018-06-10T18:20:04.902Z,15.47
2018-06-10T18:22:33.267Z,17.33
2018-06-10T18:25:01.666Z,17.37
2018-06-10T18:27:30.080Z,16.80
2018-06-10T18:29:58.460Z,17.23
2018-06-10T18:32:26.887Z,17.90
2018-06-10T18:34:55.299Z,19.47
2018-06-10T18:37:23.705Z,23.70
2018-06-10T18:39:52.079Z,23.70
2018-06-10T18:42:20.487Z,21.70
2018-06-10T18:44:48.877Z,28.80
2018-06-10T18:47:17.253Z,26.80
2018-06-10T18:49:45.636Z,27.20
2018-06-10T18:52:14.016Z,28.77
2018-06-10T18:54:42.511Z,30.50
2018-06-10T18:57:10.910Z,26.30
2018-06-10T18:59:39.310Z,29.40
2018-06-10T19:02:07.699Z,30.53
2018-06-10T19:04:36.069Z,33.47
2018-06-10T19:07:06.800Z,25.00
2018-06-10T19:09:35.308Z,29.77
2018-06-10T19:12:03.692Z,31.70
2018-06-10T19:14:32.052Z,27.97
2018-06-10T19:17:00.419Z,28.47
2018-06-10T19:19:28.877Z,30.50
2018-06-10T19:21:57.287Z,31.40
2018-06-10T19:24:25.709Z,37.20
2018-06-10T19:26:54.096Z,39.73
2018-06-10T19:29:22.540Z,42.23
2018-06-10T19:31:50.890Z,43.77
2018-06-10T19:34:19.289Z,39.10
2018-06-10T19:36:47.657Z,40.93
2018-06-10T19:39:16.027Z,42.50
2018-06-10T19:41:44.467Z,40.07
2018-06-10T19:44:12.824Z,42.20
2018-06-10T19:46:41.259Z,45.70
2018-06-10T19:49:09.677Z,44.50
2018-06-10T19:51:38.049Z,44.33
2018-06-10T19:54:06.463Z,47.70
2018-06-10T19:56:34.909Z,42.40
2018-06-10T19:59:03.350Z,47.07
2018-06-10T20:01:31.704Z,44.10
2018-06-10T20:04:00.145Z,44.87
2018-06-10T20:06:28.551Z,46.70
2018-06-10T20:08:56.933Z,48.37
2018-06-10T20:11:25.316Z,50.37
2018-06-10T20:13:53.661Z,51.37
2018-06-10T20:16:22.105Z,51.13
2018-06-10T20:18:50.190Z,52.33
2018-06-10T20:21:18.577Z,48.73
2018-06-10T20:23:47.012Z,53.20
2018-06-10T20:26:15.400Z,53.97
2018-06-10T20:28:43.822Z,48.17
2018-06-10T20:31:12.419Z,49.53
2018-06-10T20:33:40.821Z,43.60
2018-06-10T20:36:09.188Z,53.00
2018-06-10T20:38:37.539Z,48.30
2018-06-10T20:41:06.077Z,49.47
2018-06-10T20:43:34.493Z,52.97
2018-06-10T20:46:02.820Z,53.70
2018-06-10T20:48:31.294Z,52.77
2018-06-10T20:50:59.569Z,57.13
2018-06-10T20:53:27.930Z,57.37
2018-06-10T20:55:56.265Z,57.40
2018-06-10T20:58:24.620Z,54.80
2018-06-10T21:00:53.003Z,61.43
2018-06-10T21:03:21.372Z,60.60
2018-06-10T21:05:49.727Z,56.73
2018-06-10T21:08:18.121Z,60.47
2018-06-10T21:10:46.416Z,61.47
2018-06-10T21:13:14.780Z,59.97
2018-06-10T21:15:43.132Z,62.83
2018-06-10T21:18:11.738Z,74.10
2018-06-10T21:20:40.086Z,66.33
2018-06-10T21:23:08.446Z,65.30
2018-06-10T21:25:36.874Z,64.97
2018-06-10T21:28:05.238Z,63.93
2018-06-10T21:30:33.679Z,64.90
2018-06-10T21:33:02.032Z,69.07
2018-06-10T21:35:30.375Z,69.23
2018-06-10T21:37:58.754Z,64.90
2018-06-10T21:40:27.083Z,71.60
2018-06-10T21:42:55.450Z,74.37
2018-06-10T21:45:23.791Z,74.47
2018-06-10T21:47:52.172Z,70.20
2018-06-10T21:50:20.277Z,73.23
2018-06-10T21:52:48.624Z,74.80
2018-06-10T21:55:17.046Z,75.63
2018-06-10T21:57:45.403Z,71.83
2018-06-10T22:00:25.013Z,74.50
2018-06-10T22:02:53.510Z,78.00
2018-06-10T22:05:22.149Z,72.03
2018-06-10T22:07:50.503Z,76.67
2018-06-10T22:10:19.779Z,73.80
2018-06-10T22:12:48.107Z,73.20
2018-06-10T22:15:16.436Z,68.83
2018-06-10T22:17:44.844Z,80.13
2018-06-10T22:20:13.224Z,74.20
2018-06-10T22:22:41.572Z,73.63
2018-06-10T22:25:09.904Z,77.20
2018-06-10T22:27:38.280Z,76.37
2018-06-10T22:30:06.632Z,77.57
2018-06-10T22:32:34.999Z,74.03
2018-06-10T22:35:03.304Z,79.37
2018-06-10T22:37:31.666Z,74.53
2018-06-10T22:40:00.001Z,73.23
2018-06-10T22:42:28.364Z,78.07
2018-06-10T22:44:56.707Z,74.73
2018-06-10T22:47:25.057Z,72.57
2018-06-10T22:49:53.418Z,69.87
2018-06-10T22:52:21.751Z,75.20
2018-06-10T22:54:50.093Z,71.47
2018-06-10T22:57:18.520Z,67.67
2018-06-10T22:59:46.868Z,72.77
2018-06-10T23:02:15.225Z,74.77
2018-06-10T23:04:43.560Z,81.87
2018-06-10T23:07:11.934Z,72.77
2018-06-10T23:09:40.243Z,79.80
2018-06-10T23:12:08.605Z,81.90
2018-06-10T23:14:36.973Z,69.37
2018-06-10T23:17:05.314Z,77.97
2018-06-10T23:19:33.662Z,78.17
2018-06-10T23:22:02.029Z,75.17
2018-06-10T23:24:30.383Z,73.77
2018-06-10T23:26:58.747Z,74.50
2018-06-10T23:29:27.143Z,71.57
2018-06-10T23:31:55.459Z,77.10
2018-06-10T23:34:24.517Z,76.03
2018-06-10T23:36:52.916Z,79.03
2018-06-10T23:39:21.254Z,76.20
2018-06-10T23:41:49.612Z,69.80
2018-06-10T23:44:17.953Z,72.33
2018-06-10T23:46:46.285Z,72.83
2018-06-10T23:49:15.263Z,72.60
2018-06-10T23:51:44.715Z,70.60
2018-06-10T23:54:13.181Z,71.47
2018-06-10T23:56:41.539Z,79.80
2018-06-10T23:59:09.889Z,78.43
